Time;durP1;ratioP1;P1;durP2;ratioP2;P2;SDS_P1;SDS_P2;PMS_P1;PMS_P2;Temp;Humidity;BMP_temperature;BMP_pressure;BME280_temperature;BME280_humidity;BME280_pressure;Samples;Min_cycle;Max_cycle;Signal;HPM_P1;HPM_P2
2022/07/12 00:01:45;;;;;;;6.85;1.20;;;;;;;22.97;72.03;100726.13;4991218;28;20038;-81
2022/07/12 00:04:13;;;;;;;4.07;1.40;;;;;;;22.92;72.24;100719.78;4990520;28;20053;-82
2022/07/12 00:06:38;;;;;;;9.18;1.75;;;;;;;23.14;70.84;100716.22;4994437;28;20039;-83
2022/07/12 00:09:04;;;;;;;7.30;1.80;;;;;;;23.08;71.07;100721.75;4994393;28;20035;-82
2022/07/12 00:11:35;;;;;;;11.38;2.00;;;;;;;22.81;72.66;100713.34;4977887;28;20042;-82
2022/07/12 00:14:02;;;;;;;8.27;1.67;;;;;;;22.90;72.26;100725.44;4993956;28;20065;-81
2022/07/12 00:16:28;;;;;;;10.65;2.30;;;;;;;22.78;73.39;100721.94;4978761;28;20133;-82
2022/07/12 00:19:15;;;;;;;10.05;1.88;;;;;;;22.68;73.56;100729.81;4978566;28;20034;-82
2022/07/12 00:21:41;;;;;;;9.18;1.83;;;;;;;22.72;73.36;100725.59;4979491;28;20058;-82
2022/07/12 00:24:07;;;;;;;7.95;1.92;;;;;;;22.63;74.01;100721.56;4994851;28;20089;-83
2022/07/12 00:26:33;;;;;;;6.65;1.67;;;;;;;22.67;74.28;100728.16;4992692;28;20105;-82
2022/07/12 00:28:58;;;;;;;9.65;1.83;;;;;;;22.57;74.19;100722.53;4976369;28;20043;-82
2022/07/12 00:31:26;;;;;;;12.52;1.80;;;;;;;22.49;75.01;100729.09;4976086;28;20023;-83
2022/07/12 00:33:52;;;;;;;6.88;1.83;;;;;;;22.45;75.93;100727.91;4992623;28;20035;-83
2022/07/12 00:36:23;;;;;;;13.05;1.80;;;;;;;22.53;75.61;100724.03;4992540;28;20049;-83
2022/07/12 00:38:49;;;;;;;8.93;1.52;;;;;;;22.49;75.55;100725.56;4972986;28;20031;-84
2022/07/12 00:41:15;;;;;;;8.25;2.03;;;;;;;22.50;76.05;100719.13;4987312;28;20054;-84
2022/07/12 00:43:41;;;;;;;5.90;1.50;;;;;;;22.53;75.99;100732.16;4952001;28;20505;-84
2022/07/12 00:46:07;;;;;;;8.95;1.60;;;;;;;22.51;76.03;100742.34;4987275;28;20039;-83
2022/07/12 00:48:35;;;;;;;13.23;1.80;;;;;;;22.56;75.99;100739.78;4974133;28;20049;-84
2022/07/12 00:51:03;;;;;;;7.70;1.60;;;;;;;22.54;75.97;100736.47;4960679;28;20046;-83
2022/07/12 00:53:31;;;;;;;11.35;1.92;;;;;;;22.47;76.63;100741.19;4975793;28;20141;-84
2022/07/12 00:55:58;;;;;;;5.88;2.17;;;;;;;22.26;77.97;100729.06;4976516;28;20065;-83
2022/07/12 00:58:26;;;;;;;9.20;2.33;;;;;;;22.23;78.39;100731.41;4977443;28;20043;-83
2022/07/12 01:01:00;;;;;;;6.07;1.85;;;;;;;22.22;79.09;100737.88;4978063;28;20053;-81
2022/07/12 01:03:29;;;;;;;6.53;1.60;;;;;;;22.18;79.85;100732.09;4995278;28;20023;-82
2022/07/12 01:05:59;;;;;;;7.72;1.67;;;;;;;22.22;79.94;100722.50;4994319;28;20030;-83
2022/07/12 01:08:26;;;;;;;11.35;2.05;;;;;;;22.28;79.88;100735.06;4993732;28;20034;-85
2022/07/12 01:11:01;;;;;;;8.05;2.10;;;;;;;22.29;79.83;100738.59;4992657;28;20057;-85
2022/07/12 01:13:27;;;;;;;13.52;2.50;;;;;;;22.30;79.59;100745.63;4993379;28;20054;-84
2022/07/12 01:16:14;;;;;;;5.60;1.45;;;;;;;22.21;80.00;100752.41;4996465;28;20034;-85
2022/07/12 01:18:40;;;;;;;10.02;1.88;;;;;;;22.13;80.89;100740.94;4978657;28;20053;-83
2022/07/12 01:21:09;;;;;;;6.78;1.70;;;;;;;22.19;80.83;100757.22;4994511;28;20042;-86
2022/07/12 01:23:58;;;;;;;7.45;2.00;;;;;;;22.00;82.73;100753.81;4995053;28;20050;-83
2022/07/12 01:26:28;;;;;;;7.05;1.77;;;;;;;21.94;83.17;100752.03;4982223;28;20051;-83
2022/07/12 01:28:54;;;;;;;7.55;2.05;;;;;;;21.96;83.38;100758.84;4994658;28;20064;-83
2022/07/12 01:31:20;;;;;;;11.80;1.73;;;;;;;21.84;84.05;100760.63;4995079;28;20026;-83
2022/07/12 01:33:46;;;;;;;11.82;2.55;;;;;;;21.84;83.93;100760.63;4976109;28;20604;-83
2022/07/12 01:36:22;;;;;;;9.65;2.20;;;;;;;21.80;85.10;100755.94;4993889;28;20034;-84
2022/07/12 01:38:48;;;;;;;8.43;2.10;;;;;;;21.92;83.91;100754.94;4990922;28;20042;-84
2022/07/12 01:41:16;;;;;;;6.95;1.90;;;;;;;22.02;83.63;100755.22;4994469;28;20066;-84
2022/07/12 01:43:47;;;;;;;9.60;1.88;;;;;;;21.94;84.63;100747.44;4994676;28;20034;-84
2022/07/12 01:46:16;;;;;;;13.38;2.13;;;;;;;22.09;83.32;100750.53;4977826;28;20035;-83
2022/07/12 01:48:42;;;;;;;10.80;2.13;;;;;;;22.02;83.63;100746.28;4994058;28;20070;-85
2022/07/12 01:51:08;;;;;;;10.98;2.03;;;;;;;21.99;84.05;100760.25;4976414;28;20037;-84
2022/07/12 01:53:36;;;;;;;8.38;2.10;;;;;;;21.87;85.28;100752.09;4993653;28;20046;-85
2022/07/12 01:56:04;;;;;;;5.75;1.73;;;;;;;21.90;85.19;100751.66;4976083;28;20062;-84
2022/07/12 01:58:31;;;;;;;8.50;1.88;;;;;;;21.90;85.55;100757.06;4970985;28;20043;-84
2022/07/12 02:00:57;;;;;;;20.35;2.70;;;;;;;21.73;86.29;100741.72;4989709;28;20046;-84
2022/07/12 02:03:25;;;;;;;8.88;2.00;;;;;;;21.69;86.90;100754.84;4976829;28;20046;-84
2022/07/12 02:05:53;;;;;;;7.80;2.35;;;;;;;21.72;87.08;100762.47;4993639;28;20047;-85
2022/07/12 02:08:19;;;;;;;5.20;2.17;;;;;;;21.75;87.30;100753.91;4993159;28;20035;-83
2022/07/12 02:11:04;;;;;;;7.53;2.22;;;;;;;21.63;87.62;100747.66;4975534;28;20138;-85
2022/07/12 02:13:30;;;;;;;8.85;2.45;;;;;;;21.70;87.77;100748.41;4991511;28;20053;-84
2022/07/12 02:16:15;;;;;;;11.50;2.47;;;;;;;21.72;87.34;100762.47;4992578;28;20337;-83
2022/07/12 02:18:47;;;;;;;5.47;2.22;;;;;;;21.86;86.80;100761.25;4993033;28;20039;-86
2022/07/12 02:21:13;;;;;;;9.23;2.25;;;;;;;21.80;87.01;100767.56;4993055;28;20035;-84
2022/07/12 02:23:38;;;;;;;12.55;2.53;;;;;;;21.68;88.20;100763.97;4992802;28;20054;-84
2022/07/12 02:26:16;;;;;;;15.45;2.92;;;;;;;21.60;89.32;100772.41;4976372;28;20110;-84
2022/07/12 02:28:44;;;;;;;5.78;2.50;;;;;;;21.65;88.74;100775.22;4975659;28;20062;-84
2022/07/12 02:31:13;;;;;;;7.93;2.28;;;;;;;21.83;87.24;100777.06;4990691;28;20122;-84
2022/07/12 02:33:41;;;;;;;7.68;2.20;;;;;;;21.72;87.87;100783.22;4992752;28;20087;-85
2022/07/12 02:36:07;;;;;;;9.85;2.35;;;;;;;21.53;89.66;100782.44;4975790;28;20053;-83
2022/07/12 02:38:33;;;;;;;6.47;2.22;;;;;;;21.52;89.76;100784.31;4994581;28;20376;-83
2022/07/12 02:41:01;;;;;;;9.18;2.28;;;;;;;21.61;89.25;100779.44;4978770;28;20039;-85
2022/07/12 02:43:33;;;;;;;11.40;2.08;;;;;;;21.61;89.34;100774.03;4994358;28;20031;-83
2022/07/12 02:46:07;;;;;;;12.90;2.20;;;;;;;21.69;88.93;100764.81;4978142;28;20035;-83
2022/07/12 02:48:34;;;;;;;10.60;2.58;;;;;;;21.59;89.57;100776.16;4977777;28;20046;-84
2022/07/12 02:51:02;;;;;;;10.73;2.00;;;;;;;21.62;89.64;100765.72;4995808;28;20031;-85
2022/07/12 02:53:29;;;;;;;9.90;2.17;;;;;;;21.56;90.08;100773.91;4995378;28;20042;-83
2022/07/12 02:56:14;;;;;;;11.20;2.20;;;;;;;21.62;90.27;100776.50;4994432;28;20035;-83
2022/07/12 02:58:43;;;;;;;6.95;2.05;;;;;;;21.52;90.84;100778.09;4994805;28;20121;-84
2022/07/12 03:01:11;;;;;;;14.85;2.78;;;;;;;21.57;90.40;100783.66;4993723;28;20038;-84
2022/07/12 03:03:45;;;;;;;9.43;2.60;;;;;;;21.44;91.40;100789.22;4993325;28;20018;-84
2022/07/12 03:06:13;;;;;;;9.40;2.85;;;;;;;21.46;91.57;100782.53;4995100;28;20031;-84
2022/07/12 03:08:40;;;;;;;10.10;2.78;;;;;;;21.52;91.67;100784.31;4994128;28;20396;-85
2022/07/12 03:11:09;;;;;;;11.82;3.33;;;;;;;21.51;91.37;100789.97;4994829;28;20038;-84
2022/07/12 03:13:35;;;;;;;12.48;2.70;;;;;;;21.70;90.05;100791.56;4994656;28;20039;-83
2022/07/12 03:16:00;;;;;;;12.80;3.03;;;;;;;21.52;91.06;100788.88;4994633;28;20046;-84
2022/07/12 03:19:05;;;;;;;9.07;3.10;;;;;;;21.39;92.50;100791.75;4979181;28;20047;-84
2022/07/12 03:21:33;;;;;;;11.82;3.35;;;;;;;21.33;93.22;100784.56;4996198;28;20030;-84
2022/07/12 03:23:59;;;;;;;6.38;3.42;;;;;;;21.24;94.02;100794.84;4995057;28;20031;-84
2022/07/12 03:26:24;;;;;;;10.55;4.00;;;;;;;21.30;93.27;100793.13;4994744;28;20205;-84
2022/07/12 03:29:05;;;;;;;10.70;4.32;;;;;;;21.35;92.78;100801.34;4995828;28;20042;-83
2022/07/12 03:31:34;;;;;;;10.95;4.18;;;;;;;21.32;93.89;100797.22;4993773;28;20050;-83
2022/07/12 03:34:24;;;;;;;8.73;3.80;;;;;;;21.24;94.17;100802.94;4994259;28;20039;-85
2022/07/12 03:36:53;;;;;;;8.40;3.53;;;;;;;21.19;94.97;100807.34;4991907;28;20043;-86
2022/07/12 03:39:21;;;;;;;9.23;3.15;;;;;;;21.28;94.36;100811.41;4974568;28;20034;-85
2022/07/12 03:41:47;;;;;;;10.20;3.60;;;;;;;21.30;94.68;100809.28;4975441;28;20039;-86
2022/07/12 03:44:16;;;;;;;7.05;3.05;;;;;;;21.29;94.77;100813.03;4975141;28;20097;-85
2022/07/12 03:46:41;;;;;;;6.43;3.50;;;;;;;21.31;94.94;100808.25;4993342;28;20038;-84
2022/07/12 03:49:19;;;;;;;16.38;3.58;;;;;;;21.26;94.90;100814.31;4976804;28;20069;-83
2022/07/12 03:51:48;;;;;;;13.13;3.85;;;;;;;21.23;95.19;100813.94;4993217;28;20087;-84
2022/07/12 03:54:17;;;;;;;7.80;2.57;;;;;;;21.24;94.73;100815.59;4976850;28;20078;-83
2022/07/12 03:59:36;;;;;;;12.40;3.20;;;;;;;21.28;94.53;100819.50;4975922;28;20057;-83
2022/07/12 04:02:10;;;;;;;10.57;2.95;;;;;;;21.31;95.64;100816.34;4976110;28;20029;-85
2022/07/12 04:04:38;;;;;;;10.93;3.47;;;;;;;21.32;94.94;100816.09;4973807;28;20057;-83
2022/07/12 04:07:06;;;;;;;10.18;3.20;;;;;;;21.34;94.85;100813.19;4992888;28;20058;-84
2022/07/12 04:09:41;;;;;;;19.50;3.30;;;;;;;21.31;95.09;100811.75;4993321;28;20117;-84
2022/07/12 04:12:09;;;;;;;9.48;3.20;;;;;;;21.36;94.74;100819.16;4976642;28;20019;-84
2022/07/12 04:14:36;;;;;;;11.60;3.08;;;;;;;21.34;95.36;100815.88;4995186;28;20041;-83
2022/07/12 04:17:07;;;;;;;8.23;2.80;;;;;;;21.28;95.81;100820.28;4978205;28;20038;-83
2022/07/12 04:19:39;;;;;;;8.20;2.90;;;;;;;21.32;95.24;100832.28;4995067;28;20045;-83
2022/07/12 04:22:17;;;;;;;11.02;2.97;;;;;;;21.36;95.18;100830.78;4993751;28;20039;-83
2022/07/12 04:24:47;;;;;;;9.00;3.03;;;;;;;21.38;95.58;100833.25;4991668;28;20050;-82
2022/07/12 04:27:16;;;;;;;12.13;3.78;;;;;;;21.38;95.16;100834.06;4985125;28;20042;-84
2022/07/12 04:29:45;;;;;;;10.10;2.90;;;;;;;21.46;95.21;100832.94;4954557;28;20053;-83
2022/07/12 04:32:11;;;;;;;7.15;2.70;;;;;;;21.36;95.70;100836.19;4973857;28;20038;-83
2022/07/12 04:34:40;;;;;;;7.03;2.83;;;;;;;21.37;96.11;100837.00;4991194;28;20047;-85
2022/07/12 04:37:45;;;;;;;7.95;2.75;;;;;;;21.49;95.00;100835.19;4995828;28;20022;-86
2022/07/12 04:43:53;;;;;;;19.03;3.00;;;;;;;21.52;94.64;100840.13;4992613;28;20077;-88
2022/07/12 04:46:18;;;;;;;5.90;3.00;;;;;;;21.47;95.41;100837.31;4959173;28;20294;-88
2022/07/12 04:48:44;;;;;;;10.70;2.83;;;;;;;21.44;95.70;100837.75;4992827;28;20046;-86
2022/07/12 04:51:10;;;;;;;10.15;3.17;;;;;;;21.39;95.91;100835.72;4976937;28;20106;-87
2022/07/12 04:54:13;;;;;;;13.15;3.30;;;;;;;21.55;95.03;100853.16;4977242;28;20099;-85
2022/07/12 04:56:38;;;;;;;5.90;2.55;;;;;;;21.63;94.05;100855.56;4997794;28;20039;-87
2022/07/12 04:59:04;;;;;;;10.45;3.25;;;;;;;21.37;96.19;100847.78;4982538;28;20042;-89
2022/07/12 05:01:32;;;;;;;10.50;2.83;;;;;;;21.49;96.09;100851.38;4982744;28;20091;-88
2022/07/12 05:04:00;;;;;;;12.00;3.30;;;;;;;21.70;94.15;100859.00;5025727;23;20062;-91
2022/07/12 05:06:27;;;;;;;7.47;2.60;;;;;;;21.62;94.17;100851.22;4983785;28;20073;-81
2022/07/12 05:08:52;;;;;;;5.07;2.38;;;;;;;21.62;94.88;100851.22;5009022;28;20058;-81
2022/07/12 05:11:18;;;;;;;9.23;2.70;;;;;;;21.79;93.50;100852.25;5011202;28;20069;-84
2022/07/12 05:13:44;;;;;;;15.90;3.10;;;;;;;21.79;93.22;100851.41;5011878;28;20030;-81
2022/07/12 05:16:09;;;;;;;5.70;2.35;;;;;;;21.80;93.83;100859.31;4993372;28;20050;-82
2022/07/12 05:18:35;;;;;;;6.70;2.78;;;;;;;21.88;93.21;100861.66;5008362;28;20045;-83
2022/07/12 05:21:03;;;;;;;8.00;3.10;;;;;;;22.05;92.59;100868.13;5007157;28;20030;-80
2022/07/12 05:23:29;;;;;;;14.05;3.42;;;;;;;22.17;91.83;100864.66;5007591;28;20093;-81
2022/07/12 05:26:01;;;;;;;10.20;2.72;;;;;;;22.37;90.34;100860.59;5000802;28;20751;-78
2022/07/12 05:28:32;;;;;;;12.25;3.15;;;;;;;22.52;89.71;100868.25;5003050;28;20042;-81
2022/07/12 05:30:59;;;;;;;11.90;2.70;;;;;;;22.46;89.42;100864.63;5002993;28;20038;-80
2022/07/12 05:33:31;;;;;;;11.70;2.65;;;;;;;22.53;89.28;100861.81;5189157;23;20034;-78
2022/07/12 05:36:01;;;;;;;14.23;3.05;;;;;;;22.55;89.51;100863.22;5014208;28;20053;-78
2022/07/12 05:39:00;;;;;;;19.63;3.40;;;;;;;22.60;89.34;100870.66;5019589;28;20041;-82
2022/07/12 05:41:35;;;;;;;22.38;3.30;;;;;;;22.59;90.19;100869.81;5002507;28;20041;-83
2022/07/12 05:44:22;;;;;;;13.43;2.80;;;;;;;22.78;88.38;100878.69;5036026;28;20457;-79
2022/07/12 05:47:02;;;;;;;8.88;2.45;;;;;;;22.83;88.49;100876.13;5006667;28;20073;-81
2022/07/12 05:50:02;;;;;;;17.80;3.50;;;;;;;22.92;88.50;100880.09;5006173;28;20033;-80
2022/07/12 05:56:10;;;;;;;9.90;2.55;;;;;;;23.54;84.28;100872.31;5004085;28;20100;-82
2022/07/12 05:59:13;;;;;;;15.45;2.67;;;;;;;23.80;81.88;100884.50;5039364;28;20068;-82
2022/07/12 06:01:45;;;;;;;13.13;3.33;;;;;;;23.89;79.90;100892.03;5039959;28;20069;-84
2022/07/12 06:04:17;;;;;;;8.50;2.95;;;;;;;23.65;81.74;100891.25;5031402;28;20121;-80
2022/07/12 06:06:46;;;;;;;11.95;2.85;;;;;;;23.80;81.67;100895.34;5039747;28;20022;-79
2022/07/12 06:09:49;;;;;;;12.73;3.38;;;;;;;23.81;80.45;100883.44;5052787;28;20110;-81
2022/07/12 06:12:20;;;;;;;9.85;2.50;;;;;;;23.80;79.19;100898.06;5056372;28;20056;-82
2022/07/12 06:15:22;;;;;;;9.38;2.75;;;;;;;23.76;80.18;100896.88;5001106;28;20053;-85
2022/07/12 06:17:48;;;;;;;6.75;1.95;;;;;;;23.71;80.45;100892.16;5002674;28;20034;-81
2022/07/12 06:20:13;;;;;;;9.32;2.75;;;;;;;23.75;80.79;100901.47;5010299;28;20034;-84
2022/07/12 06:22:42;;;;;;;7.45;2.10;;;;;;;23.67;80.64;100901.81;4999089;28;20042;-80
2022/07/12 06:25:08;;;;;;;8.50;1.90;;;;;;;23.56;81.99;100918.94;4990678;28;20038;-81
2022/07/12 06:27:34;;;;;;;8.85;2.45;;;;;;;23.70;81.12;100908.66;5005525;28;20049;-79
2022/07/12 06:29:59;;;;;;;10.93;2.40;;;;;;;23.37;82.68;100903.84;5001220;28;20034;-84
2022/07/12 06:32:25;;;;;;;10.80;2.17;;;;;;;23.36;82.89;100902.22;4978544;28;20490;-82
2022/07/12 06:34:50;;;;;;;15.43;2.95;;;;;;;23.22;83.67;100922.44;4978320;28;20091;-82
2022/07/12 06:37:16;;;;;;;11.55;2.45;;;;;;;23.23;84.73;100918.69;4995304;28;20504;-82
2022/07/12 06:39:41;;;;;;;17.35;3.38;;;;;;;23.38;84.02;100905.50;4996259;28;20034;-85
2022/07/12 06:42:07;;;;;;;9.88;2.53;;;;;;;23.53;82.17;100914.00;4997447;28;20487;-81
2022/07/12 06:44:34;;;;;;;6.88;2.58;;;;;;;23.61;82.31;100908.19;4999062;28;20196;-82
2022/07/12 06:46:59;;;;;;;12.13;2.97;;;;;;;23.60;83.33;100915.47;4991718;28;20423;-83
2022/07/12 06:49:27;;;;;;;8.63;1.83;;;;;;;23.89;80.52;100915.56;4995717;28;20038;-85
2022/07/12 06:51:53;;;;;;;11.77;2.65;;;;;;;23.99;79.49;100918.47;4998901;28;20034;-82
2022/07/12 06:54:18;;;;;;;10.00;2.20;;;;;;;23.87;81.21;100920.38;4998312;28;20027;-86
2022/07/12 06:56:44;;;;;;;17.27;3.22;;;;;;;23.80;81.33;100920.50;5000062;28;20046;-84
2022/07/12 06:59:13;;;;;;;13.75;2.42;;;;;;;23.96;80.52;100919.75;5004666;28;20468;-83
2022/07/12 07:01:38;;;;;;;9.50;2.78;;;;;;;23.99;80.89;100922.00;5001389;28;20477;-84
2022/07/12 07:04:04;;;;;;;5.95;2.30;;;;;;;23.95;80.45;100928.94;4997534;28;20031;-86
2022/07/12 07:06:32;;;;;;;11.23;2.05;;;;;;;24.06;80.17;100925.38;4999785;28;20050;-84
2022/07/12 07:08:58;;;;;;;8.27;2.20;;;;;;;24.10;79.28;100923.84;5001783;28;20085;-89
2022/07/12 07:11:24;;;;;;;12.85;2.40;;;;;;;24.10;79.92;100934.66;4985551;28;20058;-87
2022/07/12 07:13:50;;;;;;;6.07;2.20;;;;;;;24.14;79.14;100925.03;4958283;28;1160813;-85
2022/07/12 07:16:15;;;;;;;9.18;2.42;;;;;;;24.29;78.51;100924.50;4997987;28;20030;-87
2022/07/12 07:18:41;;;;;;;7.30;2.70;;;;;;;24.34;78.21;100923.75;4980618;28;20038;-84
2022/07/12 07:21:06;;;;;;;7.80;2.40;;;;;;;24.50;77.61;100928.41;4997018;28;20144;-86
2022/07/12 07:23:32;;;;;;;11.13;2.33;;;;;;;24.55;77.73;100926.63;4997498;28;20042;-86
2022/07/12 07:25:58;;;;;;;3.95;2.20;;;;;;;24.56;76.35;100925.53;4997868;28;20169;-86
2022/07/12 07:28:23;;;;;;;12.35;2.95;;;;;;;24.72;75.82;100929.34;4980174;28;20050;-87
2022/07/12 07:30:52;;;;;;;5.05;2.15;;;;;;;24.93;74.17;100930.53;5004772;28;20042;-83
2022/07/12 07:33:21;;;;;;;4.80;1.92;;;;;;;24.83;75.27;100933.91;4993112;28;20038;-85
2022/07/12 07:35:48;;;;;;;11.43;2.20;;;;;;;25.08;73.21;100941.63;5010807;28;20040;-84
2022/07/12 07:38:18;;;;;;;5.28;2.33;;;;;;;25.11;71.95;100944.69;5011669;28;20030;-86
2022/07/12 07:40:43;;;;;;;11.68;2.20;;;;;;;25.40;70.50;100947.25;5014140;28;20033;-88
2022/07/12 07:43:10;;;;;;;11.15;1.65;;;;;;;25.66;69.34;100941.97;5015600;28;20026;-86
2022/07/12 07:45:36;;;;;;;9.77;1.65;;;;;;;25.79;67.79;100962.50;5014975;28;20038;-86
2022/07/12 07:48:01;;;;;;;8.50;2.28;;;;;;;25.85;66.60;100961.53;5014609;28;20061;-86
2022/07/12 07:50:30;;;;;;;6.05;2.03;;;;;;;25.96;65.70;100963.28;4983851;28;20010;-88
2022/07/12 07:52:58;;;;;;;16.08;2.55;;;;;;;26.11;64.39;100958.03;5015944;28;20124;-88
2022/07/12 07:55:26;;;;;;;8.10;1.83;;;;;;;25.81;66.32;100960.38;4999469;28;20026;-84
2022/07/12 07:57:52;;;;;;;13.35;2.08;;;;;;;25.43;68.14;100954.91;5017387;28;20030;-90
2022/07/12 08:00:18;;;;;;;9.75;1.80;;;;;;;25.40;69.14;100958.94;5000625;28;20030;-88
2022/07/12 08:02:53;;;;;;;8.40;2.00;;;;;;;25.16;69.54;100958.31;5018035;28;20081;-85
2022/07/12 08:05:18;;;;;;;16.05;2.10;;;;;;;25.20;70.07;100954.03;5016402;28;20046;-83
2022/07/12 08:07:47;;;;;;;5.43;1.60;;;;;;;25.22;71.03;100955.69;5016580;28;20061;-88
2022/07/12 08:10:37;;;;;;;6.30;1.70;;;;;;;25.15;70.87;100961.28;4992159;28;20042;-91
2022/07/12 08:13:02;;;;;;;5.18;1.75;;;;;;;25.13;70.88;100953.38;4997796;28;20045;-88
2022/07/12 08:15:43;;;;;;;;;;;;;;;;;;;;;
2022/07/12 08:18:09;;;;;;;9.02;2.38;;;;;;;25.24;70.72;100942.69;4996445;28;20035;-85
2022/07/12 08:20:34;;;;;;;4.75;1.95;;;;;;;25.49;69.69;100956.63;4974854;28;20026;-85
2022/07/12 08:23:00;;;;;;;7.07;2.55;;;;;;;25.52;69.77;100945.31;4992974;28;20038;-84
2022/07/12 08:26:03;;;;;;;12.05;2.42;;;;;;;25.59;69.49;100952.19;4994690;28;20031;-84
2022/07/12 08:28:30;;;;;;;6.75;2.05;;;;;;;25.84;68.19;100942.75;4992529;28;20140;-84
2022/07/12 08:30:56;;;;;;;8.85;1.70;;;;;;;26.05;67.96;100945.44;4989705;28;20035;-83
2022/07/12 08:33:21;;;;;;;5.60;1.58;;;;;;;26.27;66.01;100947.38;5007783;28;20058;-85
2022/07/12 08:35:47;;;;;;;9.02;1.80;;;;;;;26.23;66.22;100936.19;4992635;28;20042;-87
2022/07/12 08:38:15;;;;;;;2.95;1.50;;;;;;;26.15;66.75;100937.41;4997444;28;20499;-89
2022/07/12 08:40:43;;;;;;;8.13;2.22;;;;;;;26.05;66.80;100939.22;4996236;28;20038;-82
2022/07/12 08:43:12;;;;;;;11.00;1.98;;;;;;;26.37;66.19;100939.31;4993426;28;20049;-85
2022/07/12 08:45:37;;;;;;;8.88;1.80;;;;;;;26.65;64.72;100941.75;5008827;28;20034;-86
2022/07/12 08:48:03;;;;;;;4.40;1.52;;;;;;;27.12;62.38;100948.19;4998042;28;20186;-85
2022/07/12 08:50:29;;;;;;;6.75;1.77;;;;;;;26.80;63.61;100939.19;5017866;28;20046;-86
2022/07/12 08:52:55;;;;;;;8.68;1.75;;;;;;;27.07;61.98;100942.72;4989362;28;20061;-86
2022/07/12 08:55:30;;;;;;;5.60;1.58;;;;;;;27.68;59.70;100938.50;5007479;28;20038;-86
2022/07/12 08:58:02;;;;;;;3.30;1.70;;;;;;;27.00;62.29;100963.91;5010626;28;20038;-87
2022/07/12 09:00:28;;;;;;;7.40;1.67;;;;;;;26.89;62.24;100958.59;4972485;28;20048;-87
2022/07/12 09:02:55;;;;;;;5.60;1.75;;;;;;;27.14;61.89;100956.94;5009282;28;20035;-87
2022/07/12 09:05:23;;;;;;;6.65;1.90;;;;;;;28.26;58.42;100947.50;5005479;28;20072;-87
2022/07/12 09:07:49;;;;;;;6.43;2.00;;;;;;;27.66;58.41;100957.03;4988683;28;20057;-84
2022/07/12 09:10:16;;;;;;;4.47;1.90;;;;;;;27.62;58.21;100950.47;5008865;28;20041;-85
2022/07/12 09:12:42;;;;;;;9.68;1.75;;;;;;;27.80;58.41;100940.19;5019809;28;20057;-86
2022/07/12 09:15:16;;;;;;;8.77;2.20;;;;;;;28.04;57.19;100961.28;4997234;28;20042;-85
2022/07/12 09:17:56;;;;;;;5.70;1.63;;;;;;;28.21;56.59;100961.91;5012265;28;20082;-86
2022/07/12 09:20:26;;;;;;;6.28;1.90;;;;;;;27.56;59.10;100958.88;5014630;28;20034;-84
2022/07/12 09:22:54;;;;;;;8.57;2.00;;;;;;;27.56;58.13;100950.69;5007784;28;20034;-83
2022/07/12 09:25:20;;;;;;;5.60;1.85;;;;;;;27.72;58.08;100955.13;4991795;28;20026;-84
2022/07/12 09:27:54;;;;;;;8.43;2.05;;;;;;;28.23;55.81;100950.75;5006729;28;20045;-84
2022/07/12 09:30:27;;;;;;;4.03;1.75;;;;;;;28.50;55.07;100950.53;4989793;28;20062;-85
2022/07/12 09:36:06;;;;;;;8.60;2.65;;;;;;;28.62;54.95;100965.56;5014034;28;20029;-86
2022/07/12 09:38:52;;;;;;;9.18;2.15;;;;;;;28.06;57.05;100950.97;5029873;28;20570;-84
2022/07/12 09:41:21;;;;;;;6.65;2.55;;;;;;;27.77;58.18;100957.91;5009932;28;20040;-80
2022/07/12 09:43:50;;;;;;;4.18;2.00;;;;;;;27.56;58.23;100962.41;5010349;28;20038;-83
2022/07/12 09:46:17;;;;;;;6.68;1.70;;;;;;;27.83;57.10;100956.00;4981894;28;20121;-82
2022/07/12 09:48:44;;;;;;;10.90;1.92;;;;;;;27.84;57.28;100953.00;5002492;28;20451;-83
2022/07/12 09:51:13;;;;;;;7.80;1.50;;;;;;;27.88;56.58;100956.84;5016784;28;20057;-85
2022/07/12 09:53:49;;;;;;;5.22;1.65;;;;;;;27.95;56.29;100962.88;4985008;28;20030;-85
2022/07/12 09:56:17;;;;;;;13.65;2.40;;;;;;;28.15;56.09;100954.00;5008856;28;20096;-85
2022/07/12 09:58:54;;;;;;;4.32;1.60;;;;;;;28.45;54.50;100958.69;5009902;28;20042;-86
2022/07/12 10:01:21;;;;;;;8.30;1.98;;;;;;;28.72;52.98;100948.41;4998676;28;20066;-84
2022/07/12 10:03:47;;;;;;;3.58;1.67;;;;;;;28.90;52.56;100956.06;4991679;28;20021;-85
2022/07/12 10:06:22;;;;;;;8.38;2.03;;;;;;;29.09;51.96;100943.50;5005990;28;20488;-84
2022/07/12 10:08:48;;;;;;;5.25;1.63;;;;;;;29.51;51.09;100936.91;4981128;28;20114;-84
2022/07/12 10:11:14;;;;;;;12.55;1.50;;;;;;;29.64;50.31;100941.78;4976165;28;20094;-83
2022/07/12 10:13:40;;;;;;;10.00;1.58;;;;;;;29.80;49.28;100954.28;5010425;28;20399;-84
2022/07/12 10:16:10;;;;;;;7.78;1.35;;;;;;;30.09;47.87;100941.66;4981464;28;20060;-87
2022/07/12 10:18:36;;;;;;;4.97;1.30;;;;;;;30.22;46.73;100935.56;4994448;28;20495;-84
2022/07/12 10:21:18;;;;;;;6.03;1.40;;;;;;;30.22;47.38;100932.81;4993342;28;20038;-85
2022/07/12 10:23:44;;;;;;;8.25;1.45;;;;;;;30.06;46.66;100933.97;4994013;28;20113;-83
2022/07/12 10:26:40;;;;;;;10.93;1.90;;;;;;;29.58;48.34;100940.16;4994142;28;20546;-84
2022/07/12 10:29:09;;;;;;;6.82;1.65;;;;;;;29.46;49.35;100928.75;4993792;28;20030;-83
2022/07/12 10:31:40;;;;;;;7.82;1.85;;;;;;;29.95;48.04;100929.69;4994593;28;20031;-82
2022/07/12 10:34:20;;;;;;;15.47;2.60;;;;;;;29.86;48.63;100920.44;4993844;28;20142;-82
2022/07/12 10:36:54;;;;;;;7.10;1.33;;;;;;;29.69;48.13;100930.84;4993042;28;20078;-81
2022/07/12 10:39:25;;;;;;;5.10;1.00;;;;;;;30.15;47.51;100929.59;4994034;28;20039;-84
2022/07/12 10:42:05;;;;;;;8.85;1.80;;;;;;;30.31;45.97;100927.56;4994327;28;20510;-84
2022/07/12 10:44:38;;;;;;;4.70;1.30;;;;;;;30.11;45.90;100928.50;4993269;28;20089;-81
2022/07/12 10:47:06;;;;;;;5.25;1.20;;;;;;;30.11;47.65;100925.78;4996189;28;20480;-79
2022/07/12 10:49:33;;;;;;;4.95;1.33;;;;;;;30.15;48.18;100924.13;4977273;28;20117;-77
2022/07/12 10:52:11;;;;;;;7.32;1.40;;;;;;;30.41;46.34;100924.81;4993472;28;20046;-86
2022/07/12 10:54:37;;;;;;;4.25;1.42;;;;;;;31.01;44.55;100920.81;4992865;28;20105;-84
2022/07/12 10:57:03;;;;;;;3.22;1.20;;;;;;;31.20;43.12;100924.44;4993329;28;20046;-84
2022/07/12 10:59:30;;;;;;;6.50;1.48;;;;;;;31.04;43.17;100925.69;4992035;28;20037;-86
2022/07/12 11:01:56;;;;;;;5.68;1.30;;;;;;;30.61;43.82;100915.63;5015962;28;20033;-83
2022/07/12 11:04:22;;;;;;;9.80;1.50;;;;;;;30.09;44.46;100913.50;5016163;28;20396;-84
2022/07/12 11:06:49;;;;;;;4.13;1.42;;;;;;;30.30;43.73;100903.22;5015916;28;20037;-83
2022/07/12 11:09:16;;;;;;;6.95;1.40;;;;;;;30.50;43.73;100909.41;5005141;28;20034;-86
2022/07/12 11:11:50;;;;;;;9.73;1.33;;;;;;;30.89;43.66;100906.63;4996665;28;20034;-84
2022/07/12 11:14:30;;;;;;;5.50;1.38;;;;;;;31.01;42.72;100909.03;4996197;28;20038;-87
2022/07/12 11:16:57;;;;;;;3.40;1.30;;;;;;;31.07;42.43;100897.75;4979609;28;20038;-83
2022/07/12 11:19:28;;;;;;;7.30;1.40;;;;;;;30.74;43.09;100888.44;4986413;28;20047;-85
2022/07/12 11:21:58;;;;;;;5.63;1.00;;;;;;;30.65;43.28;100892.91;4992638;28;20038;-84
2022/07/12 11:24:37;;;;;;;3.42;1.20;;;;;;;30.16;44.68;100881.97;4979431;28;20065;-83
2022/07/12 11:27:05;;;;;;;5.88;1.20;;;;;;;30.09;44.82;100880.69;4982730;28;20069;-84
2022/07/12 11:29:30;;;;;;;4.00;1.33;;;;;;;30.19;45.39;100891.56;4998946;28;20034;-86
2022/07/12 11:32:04;;;;;;;7.35;1.30;;;;;;;30.21;44.67;100887.44;4977323;28;20034;-86
2022/07/12 11:34:30;;;;;;;8.75;1.52;;;;;;;30.01;45.43;100878.53;4996104;28;20042;-84
2022/07/12 11:36:57;;;;;;;4.53;1.30;;;;;;;29.72;46.21;100881.94;4962823;28;20419;-82
2022/07/12 11:39:35;;;;;;;10.10;1.52;;;;;;;29.77;46.25;100883.81;4995757;28;20038;-85
2022/07/12 11:42:02;;;;;;;5.93;1.60;;;;;;;29.76;46.75;100877.50;4996281;28;20498;-85
2022/07/12 11:44:48;;;;;;;3.97;1.35;;;;;;;30.03;47.36;100874.41;4995135;28;20070;-81
2022/07/12 11:47:15;;;;;;;7.15;1.30;;;;;;;30.14;46.18;100889.66;4993785;28;20030;-83
2022/07/12 11:49:50;;;;;;;6.60;1.60;;;;;;;29.74;46.52;100873.44;4994688;28;20126;-83
2022/07/12 11:52:17;;;;;;;4.93;1.33;;;;;;;29.64;47.05;100878.94;4994553;28;20035;-84